createdAt,value
2022-10-29T00:01:25.558Z,97136.22
2022-10-29T00:03:58.360Z,97140.47
2022-10-29T00:06:31.146Z,97141.28
2022-10-29T00:09:05.901Z,97139.38
2022-10-29T00:11:38.790Z,97142.06
2022-10-29T00:14:11.569Z,97152.03
2022-10-29T00:16:44.417Z,97150.91
2022-10-29T00:19:17.190Z,97145.53
2022-10-29T00:21:51.542Z,97147.09
2022-10-29T00:24:25.833Z,97142.19
2022-10-29T00:26:58.726Z,97136.47
2022-10-29T00:29:31.654Z,97121.91
2022-10-29T00:32:04.762Z,97116.38
2022-10-29T00:34:37.754Z,97112.22
2022-10-29T00:37:10.620Z,97110.44
2022-10-29T00:39:44.836Z,97130.63
2022-10-29T00:42:18.300Z,97131.56
2022-10-29T00:44:51.748Z,97119.81
2022-10-29T00:47:27.303Z,97128.78
2022-10-29T00:50:06.093Z,97125.88
2022-10-29T00:52:44.782Z,97133.78
2022-10-29T00:55:20.921Z,97138.47
2022-10-29T00:57:56.043Z,97140.19
2022-10-29T01:00:29.342Z,97145.22
2022-10-29T01:03:02.375Z,97134.91
2022-10-29T01:05:36.348Z,97126.97
2022-10-29T01:08:09.401Z,97133.59
2022-10-29T01:10:57.923Z,97128.00
2022-10-29T01:13:43.793Z,97130.03
2022-10-29T01:16:25.798Z,97123.19
2022-10-29T01:19:13.649Z,97116.03
2022-10-29T01:21:48.817Z,97111.44
2022-10-29T01:24:54.988Z,97112.44
2022-10-29T01:28:07.212Z,97106.44
2022-10-29T01:31:01.319Z,97112.63
2022-10-29T01:33:42.315Z,97113.16
2022-10-29T01:36:24.548Z,97111.72
2022-10-29T01:39:06.277Z,97103.28
2022-10-29T01:41:43.381Z,97100.97
2022-10-29T01:44:25.211Z,97085.38
2022-10-29T01:47:00.928Z,97083.91
2022-10-29T01:49:39.649Z,97073.56
2022-10-29T01:52:16.584Z,97081.66
2022-10-29T01:54:49.571Z,97090.09
2022-10-29T01:57:31.537Z,97085.13
2022-10-29T02:00:09.431Z,97092.09
2022-10-29T02:02:55.527Z,97087.41
2022-10-29T02:05:35.691Z,97088.97
2022-10-29T02:08:19.219Z,97090.09
2022-10-29T02:11:00.890Z,97081.22
2022-10-29T02:13:39.158Z,97072.69
2022-10-29T02:16:13.257Z,97069.22
2022-10-29T02:18:48.687Z,97074.25
2022-10-29T02:21:22.958Z,97060.00
2022-10-29T02:23:55.837Z,97071.91
2022-10-29T02:26:28.740Z,97079.19
2022-10-29T02:29:02.128Z,97077.63
2022-10-29T02:31:36.283Z,97076.50
2022-10-29T02:34:09.095Z,97074.47
2022-10-29T02:36:43.491Z,97081.00
2022-10-29T02:39:16.296Z,97077.06
2022-10-29T02:41:49.035Z,97075.94
2022-10-29T02:44:22.129Z,97080.09
2022-10-29T02:46:55.079Z,97081.66
2022-10-29T02:49:28.138Z,97080.09
2022-10-29T02:52:02.362Z,97083.56
2022-10-29T02:54:35.375Z,97086.25
2022-10-29T02:57:08.459Z,97088.94
2022-10-29T02:59:41.489Z,97079.44
2022-10-29T03:02:14.661Z,97078.63
2022-10-29T03:04:47.568Z,97072.47
2022-10-29T03:07:24.238Z,97068.28
2022-10-29T03:09:57.210Z,97067.88
2022-10-29T03:12:30.260Z,97054.09
2022-10-29T03:15:03.329Z,97056.00
2022-10-29T03:17:36.096Z,97049.03
2022-10-29T03:20:10.047Z,97052.16
2022-10-29T03:22:44.437Z,97049.13
2022-10-29T03:25:17.351Z,97051.72
2022-10-29T03:27:50.401Z,97045.09
2022-10-29T03:30:23.310Z,97058.09
2022-10-29T03:32:56.353Z,97063.38
2022-10-29T03:35:29.486Z,97062.75
2022-10-29T03:38:03.822Z,97069.16
2022-10-29T03:40:36.668Z,97062.78
2022-10-29T03:43:09.486Z,97066.78
2022-10-29T03:45:42.402Z,97067.66
2022-10-29T03:48:15.274Z,97067.75
2022-10-29T03:50:55.509Z,97070.66
2022-10-29T03:53:30.364Z,97063.00
2022-10-29T03:56:03.866Z,97062.75
2022-10-29T03:58:36.804Z,97057.47
2022-10-29T04:01:11.192Z,97065.28
2022-10-29T04:03:44.352Z,97066.94
2022-10-29T04:06:18.367Z,97067.44
2022-10-29T04:08:52.751Z,97076.06
2022-10-29T04:11:25.983Z,97073.44
2022-10-29T04:13:58.856Z,97058.63
2022-10-29T04:16:31.705Z,97061.03
2022-10-29T04:19:04.789Z,97054.25
2022-10-29T04:28:17.613Z,97050.91
2022-10-29T04:30:17.638Z,97056.47
2022-10-29T04:32:50.531Z,97052.44
2022-10-29T04:35:23.348Z,97043.44
2022-10-29T04:37:56.596Z,97049.44
2022-10-29T04:40:30.773Z,97043.16
2022-10-29T04:43:03.958Z,97052.53
2022-10-29T04:45:36.987Z,97044.31
2022-10-29T04:48:10.322Z,97049.09
2022-10-29T04:50:43.174Z,97053.53
2022-10-29T04:53:16.862Z,97054.19
2022-10-29T04:55:51.211Z,97059.09
2022-10-29T04:58:24.069Z,97066.19
2022-10-29T05:01:02.509Z,97066.50
2022-10-29T05:03:35.836Z,97075.22
2022-10-29T05:06:08.822Z,97079.19
2022-10-29T05:08:41.769Z,97066.09
2022-10-29T05:11:15.965Z,97074.00
2022-10-29T05:13:49.184Z,97071.50
2022-10-29T05:16:21.962Z,97068.66
2022-10-29T05:18:54.804Z,97076.25
2022-10-29T05:21:27.721Z,97067.28
2022-10-29T05:24:00.933Z,97071.06
2022-10-29T05:26:35.341Z,97070.91
2022-10-29T05:29:08.450Z,97075.03
2022-10-29T05:31:41.280Z,97068.41
2022-10-29T05:34:14.237Z,97074.09
2022-10-29T05:36:47.124Z,97067.81
2022-10-29T05:39:20.005Z,97065.41
2022-10-29T05:41:54.432Z,97068.41
2022-10-29T05:44:27.496Z,97066.34
2022-10-29T05:47:00.320Z,97064.63
2022-10-29T05:49:33.139Z,97065.75
2022-10-29T05:52:06.030Z,97064.47
2022-10-29T05:54:39.030Z,97058.63
2022-10-29T05:57:13.800Z,97060.53
2022-10-29T05:59:46.714Z,97068.13
2022-10-29T06:02:19.684Z,97066.53
2022-10-29T06:04:52.543Z,97072.53
2022-10-29T06:07:25.372Z,97066.84
2022-10-29T06:09:58.314Z,97068.59
2022-10-29T06:12:34.912Z,97070.16
2022-10-29T06:15:09.196Z,97065.13
2022-10-29T06:17:42.704Z,97075.84
2022-10-29T06:20:17.934Z,97069.72
2022-10-29T06:22:58.635Z,97067.03
2022-10-29T06:25:32.059Z,97055.53
2022-10-29T06:28:07.961Z,97057.88
2022-10-29T06:30:40.843Z,97055.19
2022-10-29T06:33:13.697Z,97055.19
2022-10-29T06:35:47.136Z,97060.72
2022-10-29T06:38:20.003Z,97057.72
2022-10-29T06:40:54.778Z,97061.31
2022-10-29T06:43:29.445Z,97055.31
2022-10-29T06:46:02.363Z,97060.84
2022-10-29T06:48:35.377Z,97056.41
2022-10-29T06:51:08.357Z,97062.72
2022-10-29T06:53:41.251Z,97063.34
2022-10-29T06:56:14.105Z,97067.00
2022-10-29T06:58:48.853Z,97070.59
2022-10-29T07:01:22.308Z,97065.06
2022-10-29T07:03:55.956Z,97068.81
2022-10-29T07:06:29.775Z,97070.53
2022-10-29T07:09:02.616Z,97068.78
2022-10-29T07:11:35.464Z,97067.50
2022-10-29T07:14:10.263Z,97078.97
2022-10-29T07:16:43.616Z,97080.69
2022-10-29T07:19:16.561Z,97084.00
2022-10-29T07:21:49.565Z,97088.84
2022-10-29T07:24:22.393Z,97093.38
2022-10-29T07:26:55.746Z,97092.88
2022-10-29T07:29:30.105Z,97090.91
2022-10-29T07:32:04.349Z,97099.25
2022-10-29T07:34:37.172Z,97099.19
2022-10-29T07:37:10.056Z,97098.03
2022-10-29T07:39:43.222Z,97093.69
2022-10-29T07:42:16.120Z,97100.31
2022-10-29T07:44:50.279Z,97095.66
2022-10-29T07:47:23.184Z,97086.41
2022-10-29T07:49:56.008Z,97087.59
2022-10-29T07:52:28.866Z,97087.16
2022-10-29T07:55:02.830Z,97083.72
2022-10-29T07:57:35.713Z,97077.63
2022-10-29T08:00:13.060Z,97073.38
2022-10-29T08:02:54.713Z,97087.50
2022-10-29T08:05:28.646Z,97091.34
2022-10-29T08:08:01.923Z,97085.53
2022-10-29T08:10:36.299Z,97086.25
2022-10-29T08:13:09.418Z,97087.72
2022-10-29T08:15:47.449Z,97078.75
2022-10-29T08:18:20.381Z,97083.22
2022-10-29T08:20:53.628Z,97085.34
2022-10-29T08:23:26.633Z,97086.38
2022-10-29T08:25:59.925Z,97084.34
2022-10-29T08:28:35.637Z,97084.91
2022-10-29T08:31:10.489Z,97097.09
2022-10-29T08:33:43.299Z,97093.88
2022-10-29T08:36:16.878Z,97085.97
2022-10-29T08:38:49.768Z,97085.06
2022-10-29T08:41:36.460Z,97085.72
2022-10-29T08:44:25.607Z,97091.00
2022-10-29T08:47:07.791Z,97079.28
2022-10-29T08:49:47.953Z,97079.47
2022-10-29T08:52:24.462Z,97076.19
2022-10-29T08:55:08.839Z,97077.59
2022-10-29T08:57:44.991Z,97070.94
2022-10-29T09:00:22.074Z,97067.28
2022-10-29T09:02:59.135Z,97067.91
2022-10-29T09:05:50.284Z,97063.13
2022-10-29T09:08:32.978Z,97069.59
2022-10-29T09:11:20.848Z,97073.34
2022-10-29T09:14:05.000Z,97075.91
2022-10-29T09:16:49.766Z,97065.34
2022-10-29T09:19:38.362Z,97074.06
2022-10-29T09:22:18.454Z,97068.47
2022-10-29T09:24:59.417Z,97065.22
2022-10-29T09:27:46.580Z,97072.81
2022-10-29T09:30:21.165Z,97067.91
2022-10-29T09:32:58.742Z,97063.88
2022-10-29T09:35:40.101Z,97060.19
2022-10-29T09:38:18.469Z,97058.06
2022-10-29T09:40:51.337Z,97057.41
2022-10-29T09:43:38.987Z,97056.09
2022-10-29T09:46:22.985Z,97055.88
2022-10-29T09:49:04.531Z,97051.81
2022-10-29T09:51:47.493Z,97051.59
2022-10-29T09:54:20.588Z,97050.25
2022-10-29T09:56:56.057Z,97050.72
2022-10-29T09:59:33.381Z,97038.53
2022-10-29T10:02:23.862Z,97051.06
2022-10-29T10:05:01.670Z,97039.59
2022-10-29T10:07:35.927Z,97043.97
2022-10-29T10:10:21.155Z,97043.31
2022-10-29T10:12:54.071Z,97046.53
2022-10-29T10:15:30.835Z,97038.16
2022-10-29T10:18:06.088Z,97043.69
2022-10-29T10:20:41.348Z,97036.06
2022-10-29T10:23:27.428Z,97035.78
2022-10-29T10:26:04.179Z,97026.22
2022-10-29T10:28:38.239Z,97028.22
2022-10-29T10:31:14.001Z,97032.25
2022-10-29T10:33:52.080Z,97025.78
2022-10-29T10:36:30.272Z,97022.41
2022-10-29T10:39:04.724Z,97020.56
2022-10-29T10:41:37.878Z,97019.88
2022-10-29T10:44:14.592Z,97015.34
2022-10-29T10:46:48.453Z,97008.81
2022-10-29T10:49:30.419Z,97008.91
2022-10-29T10:52:06.624Z,97000.88
2022-10-29T10:54:45.714Z,96995.50
2022-10-29T10:57:23.890Z,96984.75
2022-10-29T11:00:04.033Z,96988.69
2022-10-29T11:02:47.549Z,96984.13
2022-10-29T11:05:22.568Z,96980.28
2022-10-29T11:08:03.186Z,96971.06
2022-10-29T11:10:45.376Z,96973.44
2022-10-29T11:13:22.410Z,96973.88
2022-10-29T11:15:59.099Z,96963.06
2022-10-29T11:18:36.499Z,96966.22
2022-10-29T11:21:16.232Z,96958.09
2022-10-29T11:23:57.873Z,96958.16
2022-10-29T11:26:36.193Z,96963.22
2022-10-29T11:29:19.036Z,96957.47
2022-10-29T11:32:00.123Z,96950.50
2022-10-29T11:34:46.261Z,96947.00
2022-10-29T11:37:27.568Z,96953.28
2022-10-29T11:40:06.347Z,96949.41
2022-10-29T11:42:41.093Z,96936.19
2022-10-29T11:45:18.691Z,96937.03
2022-10-29T11:48:08.592Z,96935.50
2022-10-29T11:50:50.933Z,96935.50
2022-10-29T11:53:39.766Z,96932.41
2022-10-29T11:56:19.963Z,96926.59
2022-10-29T11:59:00.335Z,96927.78
2022-10-29T12:01:41.882Z,96925.09
2022-10-29T12:04:36.871Z,96920.84
2022-10-29T12:07:21.018Z,96913.88
2022-10-29T12:10:13.239Z,96913.09
2022-10-29T12:12:51.101Z,96904.94
2022-10-29T12:15:33.139Z,96910.41
2022-10-29T12:18:17.326Z,96906.91
2022-10-29T12:20:56.766Z,96907.31
2022-10-29T12:23:37.685Z,96902.69
2022-10-29T12:26:18.562Z,96894.16
2022-10-29T12:29:00.458Z,96898.06
2022-10-29T12:31:42.578Z,96896.94
2022-10-29T12:34:26.411Z,96898.53
2022-10-29T12:37:09.235Z,96890.00
2022-10-29T12:39:50.756Z,96896.59
2022-10-29T12:42:26.586Z,96893.50
2022-10-29T12:45:16.791Z,96890.81
2022-10-29T12:47:59.868Z,96893.50
2022-10-29T12:50:44.472Z,96889.25
2022-10-29T12:53:27.140Z,96885.78
2022-10-29T12:56:00.260Z,96877.63
2022-10-29T12:58:50.701Z,96876.84
2022-10-29T13:02:10.420Z,96873.38
2022-10-29T13:05:16.286Z,96880.38
2022-10-29T13:08:28.122Z,96866.78
2022-10-29T13:11:01.044Z,96872.22
2022-10-29T13:13:52.180Z,96866.41
2022-10-29T13:16:32.215Z,96864.06
2022-10-29T13:19:17.476Z,96861.72
2022-10-29T13:22:00.039Z,96865.22
2022-10-29T13:24:35.190Z,96863.28
2022-10-29T13:27:40.677Z,96853.97
2022-10-29T13:30:25.429Z,96859.41
2022-10-29T13:32:58.526Z,96862.53
2022-10-29T13:35:42.630Z,96858.69
2022-10-29T13:38:17.425Z,96858.25
2022-10-29T13:41:10.568Z,96856.72
2022-10-29T13:43:53.934Z,96850.50
2022-10-29T13:46:53.966Z,96852.06
2022-10-29T13:49:31.531Z,96849.72
2022-10-29T13:52:06.787Z,96845.84
2022-10-29T13:54:43.932Z,96840.78
2022-10-29T13:57:22.797Z,96840.38
2022-10-29T14:00:00.202Z,96836.50
2022-10-29T14:02:49.596Z,96834.94
2022-10-29T14:05:26.579Z,96836.09
2022-10-29T14:08:04.403Z,96832.59
2022-10-29T14:10:49.553Z,96836.09
2022-10-29T14:13:31.603Z,96827.91
2022-10-29T14:16:10.912Z,96831.81
2022-10-29T14:18:46.390Z,96831.00
2022-10-29T14:21:23.824Z,96831.00
2022-10-29T14:23:59.269Z,96837.22
2022-10-29T14:26:35.355Z,96841.88
2022-10-29T14:29:16.014Z,96832.16
2022-10-29T14:31:49.925Z,96834.06
2022-10-29T14:34:27.401Z,96832.91
2022-10-29T14:37:06.060Z,96830.56
2022-10-29T14:39:56.990Z,96832.53
2022-10-29T14:42:36.147Z,96839.13
2022-10-29T14:45:19.470Z,96830.56
2022-10-29T14:47:55.232Z,96830.16
2022-10-29T14:50:29.888Z,96835.19
2022-10-29T14:53:07.340Z,96834.78
2022-10-29T14:55:47.154Z,96831.66
2022-10-29T14:58:27.345Z,96833.19
2022-10-29T15:01:03.632Z,96826.22
2022-10-29T15:03:37.649Z,96826.19
2022-10-29T15:06:16.231Z,96823.06
2022-10-29T15:08:56.964Z,96821.91
2022-10-29T15:11:35.800Z,96827.69
2022-10-29T15:17:21.715Z,96826.88
2022-10-29T15:19:58.666Z,96823.34
2022-10-29T15:22:34.040Z,96824.09
2022-10-29T15:25:13.787Z,96816.31
2022-10-29T15:27:46.749Z,96820.91
2022-10-29T15:30:20.975Z,96812.75
2022-10-29T15:33:00.104Z,96808.84
2022-10-29T15:35:33.528Z,96811.09
2022-10-29T15:38:06.625Z,96808.31
2022-10-29T15:40:39.888Z,96804.38
2022-10-29T15:43:30.459Z,96805.47
2022-10-29T15:46:05.158Z,96798.81
2022-10-29T15:48:39.558Z,96813.13
2022-10-29T15:51:12.517Z,96812.28
2022-10-29T15:53:45.422Z,96820.38
2022-10-29T15:56:18.284Z,96815.63
2022-10-29T15:58:52.447Z,96817.91
2022-10-29T16:01:25.448Z,96818.97
2022-10-29T16:04:00.081Z,96819.25
2022-10-29T16:06:33.586Z,96811.03
2022-10-29T16:09:06.646Z,96817.13
2022-10-29T16:11:39.545Z,96815.84
2022-10-29T16:14:12.431Z,96819.22
2022-10-29T16:16:45.797Z,96816.00
2022-10-29T16:19:20.069Z,96815.13
2022-10-29T16:21:56.692Z,96812.28
2022-10-29T16:24:31.205Z,96797.44
2022-10-29T16:27:03.989Z,96797.69
2022-10-29T16:29:36.865Z,96804.53
2022-10-29T16:32:14.121Z,96802.44
2022-10-29T16:34:48.595Z,96807.34
2022-10-29T16:37:22.033Z,96807.97
2022-10-29T16:39:54.864Z,96810.16
2022-10-29T16:42:30.952Z,96803.84
2022-10-29T16:45:04.787Z,96810.63
2022-10-29T16:47:37.856Z,96803.53
2022-10-29T16:50:16.805Z,96810.75
2022-10-29T16:52:49.931Z,96802.06
2022-10-29T16:55:23.301Z,96806.56
2022-10-29T16:57:56.886Z,96808.72
2022-10-29T17:00:32.361Z,96809.38
2022-10-29T17:03:09.894Z,96812.72
2022-10-29T17:05:47.580Z,96813.38
2022-10-29T17:08:20.604Z,96810.56
2022-10-29T17:10:59.148Z,96817.81
2022-10-29T17:13:31.992Z,96809.13
2022-10-29T17:16:08.113Z,96819.09
2022-10-29T17:18:41.487Z,96823.22
2022-10-29T17:21:16.035Z,96823.16
2022-10-29T17:23:49.011Z,96824.59
2022-10-29T17:26:21.903Z,96821.72
2022-10-29T17:28:54.632Z,96827.84
2022-10-29T17:31:27.843Z,96824.19
2022-10-29T17:34:00.833Z,96828.38
2022-10-29T17:36:37.062Z,96821.31
2022-10-29T17:39:10.257Z,96828.16
2022-10-29T17:41:43.099Z,96835.41
2022-10-29T17:44:16.517Z,96842.63
2022-10-29T17:46:49.341Z,96847.16
2022-10-29T17:49:22.621Z,96845.50
2022-10-29T17:51:56.924Z,96844.66
2022-10-29T17:54:29.733Z,96845.72
2022-10-29T17:57:02.936Z,96842.16
2022-10-29T17:59:35.868Z,96842.41
2022-10-29T18:02:11.098Z,96841.19
2022-10-29T18:04:46.213Z,96846.88
2022-10-29T18:07:20.470Z,96848.34
2022-10-29T18:09:53.701Z,96850.19
2022-10-29T18:12:27.181Z,96848.16
2022-10-29T18:15:00.166Z,96846.16
2022-10-29T18:17:33.297Z,96860.38
2022-10-29T18:20:07.120Z,96852.19
2022-10-29T18:22:44.331Z,96859.81
2022-10-29T18:25:17.549Z,96857.41
2022-10-29T18:27:55.609Z,96854.25
2022-10-29T18:30:28.693Z,96861.50
2022-10-29T18:33:02.176Z,96852.19
2022-10-29T18:35:38.800Z,96852.19
2022-10-29T18:38:13.212Z,96851.28
2022-10-29T18:40:53.509Z,96847.72
2022-10-29T18:43:28.147Z,96844.56
2022-10-29T18:46:02.600Z,96846.03
2022-10-29T18:48:39.309Z,96845.97
2022-10-29T18:51:14.187Z,96840.91
2022-10-29T18:53:48.453Z,96838.13
2022-10-29T18:56:23.411Z,96839.28
2022-10-29T18:58:57.119Z,96834.56
2022-10-29T19:01:32.421Z,96837.16
2022-10-29T19:04:07.451Z,96844.06
2022-10-29T19:06:40.349Z,96850.91
2022-10-29T19:09:14.692Z,96839.69
2022-10-29T19:11:55.243Z,96838.44
2022-10-29T19:14:31.349Z,96851.06
2022-10-29T19:17:04.187Z,96838.28
2022-10-29T19:19:37.336Z,96841.31
2022-10-29T19:22:11.341Z,96836.19
2022-10-29T19:24:45.636Z,96845.38
2022-10-29T19:27:18.567Z,96841.03
2022-10-29T19:29:51.680Z,96842.84
2022-10-29T19:32:24.873Z,96841.63
2022-10-29T19:34:58.090Z,96846.25
2022-10-29T19:37:31.004Z,96844.69
2022-10-29T19:40:09.318Z,96848.16
2022-10-29T19:42:44.444Z,96839.19
2022-10-29T19:45:18.390Z,96836.38
2022-10-29T19:47:51.392Z,96844.38
2022-10-29T19:53:03.804Z,96839.22
2022-10-29T19:55:40.865Z,96847.66
2022-10-29T19:58:13.716Z,96845.97
2022-10-29T20:00:47.037Z,96848.22
2022-10-29T20:03:20.468Z,96844.66
2022-10-29T20:05:56.487Z,96853.84
2022-10-29T20:08:29.816Z,96851.06
2022-10-29T20:11:04.262Z,96853.66
2022-10-29T20:13:38.019Z,96844.69
2022-10-29T20:16:12.989Z,96855.03
2022-10-29T20:18:46.365Z,96861.88
2022-10-29T20:21:19.316Z,96853.97
2022-10-29T20:23:52.252Z,96853.91
2022-10-29T20:26:26.521Z,96853.00
2022-10-29T20:28:59.731Z,96855.94
2022-10-29T20:31:38.538Z,96853.91
2022-10-29T20:34:13.942Z,96858.06
2022-10-29T20:36:47.361Z,96851.00
2022-10-29T20:39:20.674Z,96850.56
2022-10-29T20:41:55.359Z,96856.63
2022-10-29T20:44:28.173Z,96851.91
2022-10-29T20:47:01.141Z,96853.38
2022-10-29T20:49:33.966Z,96864.47
2022-10-29T20:52:08.264Z,96862.78
2022-10-29T20:54:41.150Z,96865.81
2022-10-29T20:57:15.671Z,96863.78
2022-10-29T20:59:48.474Z,96856.75
2022-10-29T21:02:21.497Z,96862.00
2022-10-29T21:04:54.839Z,96862.69
2022-10-29T21:07:27.741Z,96866.03
2022-10-29T21:10:00.708Z,96871.66
2022-10-29T21:12:35.394Z,96865.81
2022-10-29T21:15:09.397Z,96864.47
2022-10-29T21:17:42.345Z,96866.25
2022-10-29T21:20:15.317Z,96872.75
2022-10-29T21:22:48.246Z,96863.34
2022-10-29T21:25:21.027Z,96862.09
2022-10-29T21:27:56.985Z,96860.44
2022-10-29T21:30:30.412Z,96850.34
2022-10-29T21:33:03.332Z,96858.72
2022-10-29T21:35:36.148Z,96847.88
2022-10-29T21:38:09.095Z,96855.16
2022-10-29T21:40:42.437Z,96857.38
2022-10-29T21:43:18.128Z,96860.84
2022-10-29T21:45:52.202Z,96861.19
2022-10-29T21:48:26.835Z,96859.63
2022-10-29T21:51:02.013Z,96859.63
2022-10-29T21:53:35.296Z,96853.03
2022-10-29T21:56:11.104Z,96857.59
2022-10-29T21:58:45.438Z,96857.59
2022-10-29T22:01:18.544Z,96861.41
2022-10-29T22:03:51.539Z,96865.22
2022-10-29T22:06:25.910Z,96863.31
2022-10-29T22:09:00.539Z,96856.69
2022-10-29T22:11:33.521Z,96851.94
2022-10-29T22:14:07.750Z,96858.09
2022-10-29T22:16:40.536Z,96852.63
2022-10-29T22:19:13.343Z,96859.44
2022-10-29T22:21:47.317Z,96857.88
2022-10-29T22:24:20.614Z,96847.81
2022-10-29T22:26:53.932Z,96851.59
2022-10-29T22:29:28.122Z,96848.47
2022-10-29T22:32:00.925Z,96839.94
2022-10-29T22:34:33.887Z,96840.28
2022-10-29T22:37:07.013Z,96842.84
2022-10-29T22:39:40.825Z,96836.69
2022-10-29T22:42:13.915Z,96838.94
2022-10-29T22:44:48.211Z,96833.88
2022-10-29T22:47:21.424Z,96830.31
2022-10-29T22:49:56.584Z,96829.84
2022-10-29T22:52:29.511Z,96841.38
2022-10-29T22:55:02.461Z,96829.38
2022-10-29T22:57:35.499Z,96831.59
2022-10-29T23:00:11.429Z,96834.28
2022-10-29T23:02:44.991Z,96826.56
2022-10-29T23:05:19.896Z,96837.97
2022-10-29T23:07:54.708Z,96835.31
2022-10-29T23:10:29.339Z,96842.09
2022-10-29T23:13:03.585Z,96838.97
2022-10-29T23:15:48.825Z,96841.31
2022-10-29T23:18:24.478Z,96837.38
2022-10-29T23:21:06.058Z,96838.97
2022-10-29T23:23:39.397Z,96835.06
2022-10-29T23:26:15.422Z,96832.69
2022-10-29T23:28:52.740Z,96829.69
2022-10-29T23:31:28.750Z,96835.47
2022-10-29T23:34:06.879Z,96829.69
2022-10-29T23:36:41.660Z,96819.75
2022-10-29T23:39:16.405Z,96827.78
2022-10-29T23:41:51.291Z,96825.09
2022-10-29T23:44:24.290Z,96823.22
2022-10-29T23:46:58.729Z,96817.06
2022-10-29T23:49:36.526Z,96820.84
2022-10-29T23:52:10.082Z,96815.81
2022-10-29T23:54:43.307Z,96825.75
2022-10-29T23:57:17.420Z,96832.69
2022-10-29T23:59:54.477Z,96821.50
